sensor_id;sensor_type;location;lat;lon;timestamp;P1;durP1;ratioP1;P2;durP2;ratioP2
56299;SDS011;42209;6.376;-10.782;2022-08-21T00:00:37;2.45;;;2.08;;
56299;SDS011;42209;6.376;-10.782;2022-08-21T00:03:10;2.15;;;1.95;;
56299;SDS011;42209;6.376;-10.782;2022-08-21T00:05:41;2.60;;;2.38;;
56299;SDS011;42209;6.376;-10.782;2022-08-21T00:08:15;2.40;;;2.20;;
56299;SDS011;42209;6.376;-10.782;2022-08-21T00:10:45;2.90;;;2.70;;
56299;SDS011;42209;6.376;-10.782;2022-08-21T00:13:16;2.83;;;2.60;;
56299;SDS011;42209;6.376;-10.782;2022-08-21T00:15:45;2.10;;;1.90;;
56299;SDS011;42209;6.376;-10.782;2022-08-21T00:18:14;3.08;;;2.78;;
56299;SDS011;42209;6.376;-10.782;2022-08-21T00:20:43;2.03;;;1.92;;
56299;SDS011;42209;6.376;-10.782;2022-08-21T00:23:12;2.55;;;2.35;;
56299;SDS011;42209;6.376;-10.782;2022-08-21T00:25:42;2.45;;;2.25;;
56299;SDS011;42209;6.376;-10.782;2022-08-21T00:28:11;2.90;;;2.30;;
56299;SDS011;42209;6.376;-10.782;2022-08-21T00:30:40;2.00;;;1.80;;
56299;SDS011;42209;6.376;-10.782;2022-08-21T00:33:11;2.65;;;2.35;;
56299;SDS011;42209;6.376;-10.782;2022-08-21T00:35:41;3.30;;;2.03;;
56299;SDS011;42209;6.376;-10.782;2022-08-21T00:38:10;2.40;;;2.15;;
56299;SDS011;42209;6.376;-10.782;2022-08-21T00:43:14;1.60;;;1.42;;
56299;SDS011;42209;6.376;-10.782;2022-08-21T00:45:44;3.08;;;2.10;;
56299;SDS011;42209;6.376;-10.782;2022-08-21T00:50:49;2.93;;;2.07;;
56299;SDS011;42209;6.376;-10.782;2022-08-21T00:53:42;1.88;;;1.77;;
56299;SDS011;42209;6.376;-10.782;2022-08-21T00:56:19;2.10;;;1.70;;
56299;SDS011;42209;6.376;-10.782;2022-08-21T00:59:10;2.65;;;1.98;;
56299;SDS011;42209;6.376;-10.782;2022-08-21T01:01:39;2.00;;;1.80;;
56299;SDS011;42209;6.376;-10.782;2022-08-21T01:04:08;2.15;;;1.65;;
56299;SDS011;42209;6.376;-10.782;2022-08-21T01:06:36;2.60;;;1.90;;
56299;SDS011;42209;6.376;-10.782;2022-08-21T01:09:04;1.77;;;1.67;;
56299;SDS011;42209;6.376;-10.782;2022-08-21T01:11:33;2.30;;;2.13;;
56299;SDS011;42209;6.376;-10.782;2022-08-21T01:14:01;3.10;;;2.03;;
56299;SDS011;42209;6.376;-10.782;2022-08-21T01:18:58;1.70;;;1.60;;
56299;SDS011;42209;6.376;-10.782;2022-08-21T01:21:26;2.00;;;1.67;;
56299;SDS011;42209;6.376;-10.782;2022-08-21T01:23:55;2.05;;;1.60;;
56299;SDS011;42209;6.376;-10.782;2022-08-21T01:26:27;2.33;;;1.52;;
56299;SDS011;42209;6.376;-10.782;2022-08-21T01:29:07;2.75;;;1.38;;
56299;SDS011;42209;6.376;-10.782;2022-08-21T01:31:37;1.70;;;1.55;;
56299;SDS011;42209;6.376;-10.782;2022-08-21T01:34:05;2.25;;;2.05;;
56299;SDS011;42209;6.376;-10.782;2022-08-21T01:36:35;2.42;;;2.05;;
56299;SDS011;42209;6.376;-10.782;2022-08-21T01:39:04;1.70;;;1.38;;
56299;SDS011;42209;6.376;-10.782;2022-08-21T01:41:33;1.90;;;1.67;;
56299;SDS011;42209;6.376;-10.782;2022-08-21T01:44:01;2.13;;;1.27;;
56299;SDS011;42209;6.376;-10.782;2022-08-21T01:46:30;3.30;;;1.75;;
56299;SDS011;42209;6.376;-10.782;2022-08-21T01:48:58;2.10;;;1.27;;
56299;SDS011;42209;6.376;-10.782;2022-08-21T01:51:26;1.40;;;1.20;;
56299;SDS011;42209;6.376;-10.782;2022-08-21T01:53:55;1.73;;;1.63;;
56299;SDS011;42209;6.376;-10.782;2022-08-21T01:56:24;2.13;;;1.70;;
56299;SDS011;42209;6.376;-10.782;2022-08-21T01:58:52;1.50;;;1.30;;
56299;SDS011;42209;6.376;-10.782;2022-08-21T02:01:20;1.98;;;1.88;;
56299;SDS011;42209;6.376;-10.782;2022-08-21T02:03:49;1.30;;;1.13;;
56299;SDS011;42209;6.376;-10.782;2022-08-21T02:06:17;1.88;;;1.33;;
56299;SDS011;42209;6.376;-10.782;2022-08-21T02:08:46;1.58;;;1.48;;
56299;SDS011;42209;6.376;-10.782;2022-08-21T02:11:14;1.85;;;1.63;;
56299;SDS011;42209;6.376;-10.782;2022-08-21T02:13:43;1.40;;;1.27;;
56299;SDS011;42209;6.376;-10.782;2022-08-21T02:16:11;1.98;;;1.45;;
56299;SDS011;42209;6.376;-10.782;2022-08-21T02:18:46;1.52;;;1.20;;
56299;SDS011;42209;6.376;-10.782;2022-08-21T02:21:14;1.40;;;1.30;;
56299;SDS011;42209;6.376;-10.782;2022-08-21T02:23:44;1.95;;;1.75;;
56299;SDS011;42209;6.376;-10.782;2022-08-21T02:26:12;1.52;;;1.20;;
56299;SDS011;42209;6.376;-10.782;2022-08-21T02:28:40;1.80;;;1.25;;
56299;SDS011;42209;6.376;-10.782;2022-08-21T02:31:09;1.60;;;1.50;;
56299;SDS011;42209;6.376;-10.782;2022-08-21T02:33:37;1.63;;;1.23;;
56299;SDS011;42209;6.376;-10.782;2022-08-21T02:36:06;2.15;;;1.95;;
56299;SDS011;42209;6.376;-10.782;2022-08-21T02:38:36;1.65;;;1.55;;
56299;SDS011;42209;6.376;-10.782;2022-08-21T02:41:07;1.23;;;0.93;;
56299;SDS011;42209;6.376;-10.782;2022-08-21T02:43:38;2.03;;;1.83;;
56299;SDS011;42209;6.376;-10.782;2022-08-21T02:46:07;1.45;;;1.15;;
56299;SDS011;42209;6.376;-10.782;2022-08-21T02:48:36;1.10;;;0.98;;
56299;SDS011;42209;6.376;-10.782;2022-08-21T02:51:09;1.42;;;0.85;;
56299;SDS011;42209;6.376;-10.782;2022-08-21T02:53:40;1.50;;;1.17;;
56299;SDS011;42209;6.376;-10.782;2022-08-21T02:56:09;1.40;;;1.20;;
56299;SDS011;42209;6.376;-10.782;2022-08-21T02:58:41;1.50;;;1.10;;
56299;SDS011;42209;6.376;-10.782;2022-08-21T03:01:12;1.80;;;1.30;;
56299;SDS011;42209;6.376;-10.782;2022-08-21T03:03:41;1.73;;;1.15;;
56299;SDS011;42209;6.376;-10.782;2022-08-21T03:06:13;1.40;;;1.05;;
56299;SDS011;42209;6.376;-10.782;2022-08-21T03:08:42;2.08;;;1.48;;
56299;SDS011;42209;6.376;-10.782;2022-08-21T03:11:12;1.15;;;1.00;;
56299;SDS011;42209;6.376;-10.782;2022-08-21T03:13:41;1.55;;;1.00;;
56299;SDS011;42209;6.376;-10.782;2022-08-21T03:16:09;1.58;;;1.40;;
56299;SDS011;42209;6.376;-10.782;2022-08-21T03:18:38;1.50;;;1.05;;
56299;SDS011;42209;6.376;-10.782;2022-08-21T03:21:06;1.20;;;1.10;;
56299;SDS011;42209;6.376;-10.782;2022-08-21T03:26:03;2.50;;;1.45;;
56299;SDS011;42209;6.376;-10.782;2022-08-21T03:28:33;2.25;;;1.63;;
56299;SDS011;42209;6.376;-10.782;2022-08-21T03:31:02;1.92;;;1.50;;
56299;SDS011;42209;6.376;-10.782;2022-08-21T03:33:30;1.25;;;0.90;;
56299;SDS011;42209;6.376;-10.782;2022-08-21T03:36:00;1.05;;;0.73;;
56299;SDS011;42209;6.376;-10.782;2022-08-21T03:38:33;1.50;;;1.13;;
56299;SDS011;42209;6.376;-10.782;2022-08-21T03:41:03;1.95;;;1.10;;
56299;SDS011;42209;6.376;-10.782;2022-08-21T03:43:34;1.52;;;0.98;;
56299;SDS011;42209;6.376;-10.782;2022-08-21T03:46:03;1.40;;;0.98;;
56299;SDS011;42209;6.376;-10.782;2022-08-21T03:48:33;1.60;;;0.90;;
56299;SDS011;42209;6.376;-10.782;2022-08-21T03:51:03;2.45;;;1.13;;
56299;SDS011;42209;6.376;-10.782;2022-08-21T03:53:32;1.20;;;0.63;;
56299;SDS011;42209;6.376;-10.782;2022-08-21T03:56:01;1.50;;;1.00;;
56299;SDS011;42209;6.376;-10.782;2022-08-21T04:00:58;1.30;;;1.13;;
56299;SDS011;42209;6.376;-10.782;2022-08-21T04:03:28;1.08;;;0.88;;
56299;SDS011;42209;6.376;-10.782;2022-08-21T04:05:59;1.20;;;0.88;;
56299;SDS011;42209;6.376;-10.782;2022-08-21T04:08:28;1.40;;;1.10;;
56299;SDS011;42209;6.376;-10.782;2022-08-21T04:10:57;2.13;;;0.90;;
56299;SDS011;42209;6.376;-10.782;2022-08-21T04:13:26;1.10;;;0.93;;
56299;SDS011;42209;6.376;-10.782;2022-08-21T04:15:54;1.60;;;1.15;;
56299;SDS011;42209;6.376;-10.782;2022-08-21T04:18:23;1.30;;;0.90;;
56299;SDS011;42209;6.376;-10.782;2022-08-21T04:20:52;1.35;;;1.13;;
56299;SDS011;42209;6.376;-10.782;2022-08-21T04:23:21;1.50;;;0.98;;
56299;SDS011;42209;6.376;-10.782;2022-08-21T04:25:51;1.50;;;0.90;;
56299;SDS011;42209;6.376;-10.782;2022-08-21T04:28:21;1.05;;;0.88;;
56299;SDS011;42209;6.376;-10.782;2022-08-21T04:30:55;1.33;;;0.93;;
56299;SDS011;42209;6.376;-10.782;2022-08-21T04:33:24;1.10;;;0.80;;
56299;SDS011;42209;6.376;-10.782;2022-08-21T04:35:53;1.08;;;0.88;;
56299;SDS011;42209;6.376;-10.782;2022-08-21T04:38:21;0.90;;;0.60;;
56299;SDS011;42209;6.376;-10.782;2022-08-21T04:40:49;1.30;;;0.82;;
56299;SDS011;42209;6.376;-10.782;2022-08-21T04:43:19;1.27;;;0.90;;
56299;SDS011;42209;6.376;-10.782;2022-08-21T04:48:16;0.70;;;0.60;;
56299;SDS011;42209;6.376;-10.782;2022-08-21T04:56:32;1.25;;;0.90;;
56299;SDS011;42209;6.376;-10.782;2022-08-21T04:59:10;1.00;;;0.70;;
56299;SDS011;42209;6.376;-10.782;2022-08-21T05:01:42;1.00;;;0.65;;
56299;SDS011;42209;6.376;-10.782;2022-08-21T05:04:14;1.48;;;0.77;;
56299;SDS011;42209;6.376;-10.782;2022-08-21T05:06:45;1.08;;;0.80;;
56299;SDS011;42209;6.376;-10.782;2022-08-21T05:09:16;0.85;;;0.60;;
56299;SDS011;42209;6.376;-10.782;2022-08-21T05:11:45;1.00;;;0.70;;
56299;SDS011;42209;6.376;-10.782;2022-08-21T05:16:42;1.33;;;1.05;;
56299;SDS011;42209;6.376;-10.782;2022-08-21T05:19:10;1.02;;;0.70;;
56299;SDS011;42209;6.376;-10.782;2022-08-21T05:24:09;1.13;;;0.80;;
56299;SDS011;42209;6.376;-10.782;2022-08-21T05:26:38;1.50;;;0.90;;
56299;SDS011;42209;6.376;-10.782;2022-08-21T05:29:13;1.10;;;0.60;;
56299;SDS011;42209;6.376;-10.782;2022-08-21T05:31:44;1.17;;;0.68;;
56299;SDS011;42209;6.376;-10.782;2022-08-21T05:34:14;1.15;;;0.70;;
56299;SDS011;42209;6.376;-10.782;2022-08-21T05:36:46;1.30;;;0.85;;
56299;SDS011;42209;6.376;-10.782;2022-08-21T05:41:42;0.80;;;0.60;;
56299;SDS011;42209;6.376;-10.782;2022-08-21T05:44:11;1.48;;;0.93;;
56299;SDS011;42209;6.376;-10.782;2022-08-21T05:46:39;0.80;;;0.47;;
56299;SDS011;42209;6.376;-10.782;2022-08-21T05:49:07;0.65;;;0.40;;
56299;SDS011;42209;6.376;-10.782;2022-08-21T05:51:35;0.90;;;0.60;;
56299;SDS011;42209;6.376;-10.782;2022-08-21T05:54:04;0.90;;;0.68;;
56299;SDS011;42209;6.376;-10.782;2022-08-21T05:56:32;1.02;;;0.50;;
56299;SDS011;42209;6.376;-10.782;2022-08-21T05:59:00;1.15;;;0.60;;
56299;SDS011;42209;6.376;-10.782;2022-08-21T06:01:34;1.17;;;0.70;;
56299;SDS011;42209;6.376;-10.782;2022-08-21T06:04:03;1.00;;;0.68;;
56299;SDS011;42209;6.376;-10.782;2022-08-21T06:06:31;1.23;;;0.80;;
56299;SDS011;42209;6.376;-10.782;2022-08-21T06:09:00;2.55;;;0.70;;
56299;SDS011;42209;6.376;-10.782;2022-08-21T06:11:29;1.02;;;0.73;;
56299;SDS011;42209;6.376;-10.782;2022-08-21T06:13:57;2.13;;;0.73;;
56299;SDS011;42209;6.376;-10.782;2022-08-21T06:16:26;0.95;;;0.60;;
56299;SDS011;42209;6.376;-10.782;2022-08-21T06:18:55;0.85;;;0.52;;
56299;SDS011;42209;6.376;-10.782;2022-08-21T06:21:28;1.20;;;0.80;;
56299;SDS011;42209;6.376;-10.782;2022-08-21T06:23:57;0.98;;;0.52;;
56299;SDS011;42209;6.376;-10.782;2022-08-21T06:26:25;1.85;;;0.52;;
56299;SDS011;42209;6.376;-10.782;2022-08-21T06:28:53;1.13;;;0.60;;
56299;SDS011;42209;6.376;-10.782;2022-08-21T06:31:23;1.20;;;0.68;;
56299;SDS011;42209;6.376;-10.782;2022-08-21T06:33:53;1.40;;;0.70;;
56299;SDS011;42209;6.376;-10.782;2022-08-21T06:36:21;0.93;;;0.60;;
56299;SDS011;42209;6.376;-10.782;2022-08-21T06:38:50;0.70;;;0.40;;
56299;SDS011;42209;6.376;-10.782;2022-08-21T06:41:19;0.82;;;0.50;;
56299;SDS011;42209;6.376;-10.782;2022-08-21T06:43:52;1.08;;;0.60;;
56299;SDS011;42209;6.376;-10.782;2022-08-21T06:46:26;1.13;;;0.55;;
56299;SDS011;42209;6.376;-10.782;2022-08-21T06:48:56;1.50;;;0.60;;
56299;SDS011;42209;6.376;-10.782;2022-08-21T06:51:25;1.13;;;0.95;;
56299;SDS011;42209;6.376;-10.782;2022-08-21T06:53:54;0.80;;;0.57;;
56299;SDS011;42209;6.376;-10.782;2022-08-21T06:56:25;1.10;;;0.70;;
56299;SDS011;42209;6.376;-10.782;2022-08-21T06:58:53;2.00;;;0.70;;
56299;SDS011;42209;6.376;-10.782;2022-08-21T07:01:23;1.15;;;0.73;;
56299;SDS011;42209;6.376;-10.782;2022-08-21T07:03:53;0.90;;;0.50;;
56299;SDS011;42209;6.376;-10.782;2022-08-21T07:06:21;1.13;;;0.80;;
56299;SDS011;42209;6.376;-10.782;2022-08-21T07:08:50;1.00;;;0.55;;
56299;SDS011;42209;6.376;-10.782;2022-08-21T07:11:20;1.98;;;0.80;;
56299;SDS011;42209;6.376;-10.782;2022-08-21T07:13:50;1.65;;;0.90;;
56299;SDS011;42209;6.376;-10.782;2022-08-21T07:16:20;1.38;;;0.82;;
56299;SDS011;42209;6.376;-10.782;2022-08-21T07:18:48;1.48;;;0.60;;
56299;SDS011;42209;6.376;-10.782;2022-08-21T07:23:51;1.60;;;0.65;;
56299;SDS011;42209;6.376;-10.782;2022-08-21T07:28:50;1.02;;;0.47;;
56299;SDS011;42209;6.376;-10.782;2022-08-21T07:31:20;1.58;;;0.93;;
56299;SDS011;42209;6.376;-10.782;2022-08-21T07:33:50;3.92;;;1.05;;
56299;SDS011;42209;6.376;-10.782;2022-08-21T07:38:46;1.95;;;0.93;;
56299;SDS011;42209;6.376;-10.782;2022-08-21T07:41:20;1.25;;;0.50;;
56299;SDS011;42209;6.376;-10.782;2022-08-21T07:43:51;1.80;;;0.80;;
56299;SDS011;42209;6.376;-10.782;2022-08-21T07:46:20;7.55;;;1.23;;
56299;SDS011;42209;6.376;-10.782;2022-08-21T07:48:48;2.80;;;0.80;;
56299;SDS011;42209;6.376;-10.782;2022-08-21T07:51:20;2.05;;;1.00;;
56299;SDS011;42209;6.376;-10.782;2022-08-21T07:53:53;3.10;;;1.17;;
56299;SDS011;42209;6.376;-10.782;2022-08-21T07:56:22;4.43;;;1.10;;
56299;SDS011;42209;6.376;-10.782;2022-08-21T07:58:51;2.00;;;1.10;;
56299;SDS011;42209;6.376;-10.782;2022-08-21T08:01:19;1.75;;;0.95;;
56299;SDS011;42209;6.376;-10.782;2022-08-21T08:03:48;1.52;;;0.73;;
56299;SDS011;42209;6.376;-10.782;2022-08-21T08:06:16;1.25;;;0.88;;
56299;SDS011;42209;6.376;-10.782;2022-08-21T08:08:45;2.10;;;0.95;;
56299;SDS011;42209;6.376;-10.782;2022-08-21T08:11:13;2.00;;;1.20;;
56299;SDS011;42209;6.376;-10.782;2022-08-21T08:16:11;1.73;;;0.90;;
56299;SDS011;42209;6.376;-10.782;2022-08-21T08:18:40;1.40;;;1.00;;
56299;SDS011;42209;6.376;-10.782;2022-08-21T08:21:09;2.38;;;0.70;;
56299;SDS011;42209;6.376;-10.782;2022-08-21T08:23:38;1.40;;;0.70;;
56299;SDS011;42209;6.376;-10.782;2022-08-21T08:26:06;2.90;;;1.30;;
56299;SDS011;42209;6.376;-10.782;2022-08-21T08:28:35;2.47;;;0.90;;
56299;SDS011;42209;6.376;-10.782;2022-08-21T08:31:03;1.65;;;0.88;;
56299;SDS011;42209;6.376;-10.782;2022-08-21T08:33:31;2.10;;;1.13;;
56299;SDS011;42209;6.376;-10.782;2022-08-21T08:36:00;2.90;;;1.05;;
56299;SDS011;42209;6.376;-10.782;2022-08-21T08:38:33;4.38;;;1.05;;
56299;SDS011;42209;6.376;-10.782;2022-08-21T08:43:36;1.55;;;0.95;;
56299;SDS011;42209;6.376;-10.782;2022-08-21T08:46:05;2.13;;;1.13;;
56299;SDS011;42209;6.376;-10.782;2022-08-21T08:49:14;2.08;;;1.25;;
56299;SDS011;42209;6.376;-10.782;2022-08-21T08:51:45;2.42;;;1.23;;
56299;SDS011;42209;6.376;-10.782;2022-08-21T08:54:46;2.17;;;1.23;;
56299;SDS011;42209;6.376;-10.782;2022-08-21T08:57:24;2.33;;;0.90;;
56299;SDS011;42209;6.376;-10.782;2022-08-21T08:59:56;1.70;;;1.23;;
56299;SDS011;42209;6.376;-10.782;2022-08-21T09:02:28;1.52;;;0.90;;
56299;SDS011;42209;6.376;-10.782;2022-08-21T09:04:56;1.92;;;1.15;;
56299;SDS011;42209;6.376;-10.782;2022-08-21T09:07:43;1.20;;;0.80;;
56299;SDS011;42209;6.376;-10.782;2022-08-21T09:10:37;1.52;;;0.90;;
56299;SDS011;42209;6.376;-10.782;2022-08-21T09:13:25;2.45;;;0.88;;
56299;SDS011;42209;6.376;-10.782;2022-08-21T09:16:10;2.13;;;1.15;;
56299;SDS011;42209;6.376;-10.782;2022-08-21T09:29:34;1.42;;;0.80;;
56299;SDS011;42209;6.376;-10.782;2022-08-21T09:35:08;4.13;;;1.10;;
56299;SDS011;42209;6.376;-10.782;2022-08-21T09:40:30;3.08;;;1.00;;
56299;SDS011;42209;6.376;-10.782;2022-08-21T09:43:05;2.13;;;0.98;;
56299;SDS011;42209;6.376;-10.782;2022-08-21T09:45:34;1.52;;;1.00;;
56299;SDS011;42209;6.376;-10.782;2022-08-21T09:51:06;1.63;;;1.23;;
56299;SDS011;42209;6.376;-10.782;2022-08-21T09:53:39;2.97;;;1.38;;
56299;SDS011;42209;6.376;-10.782;2022-08-21T09:56:21;1.38;;;0.90;;
56299;SDS011;42209;6.376;-10.782;2022-08-21T09:58:57;2.08;;;1.35;;
56299;SDS011;42209;6.376;-10.782;2022-08-21T10:01:25;2.22;;;1.27;;
56299;SDS011;42209;6.376;-10.782;2022-08-21T10:07:12;2.63;;;1.13;;
56299;SDS011;42209;6.376;-10.782;2022-08-21T10:09:41;1.92;;;1.30;;
56299;SDS011;42209;6.376;-10.782;2022-08-21T10:12:13;3.25;;;1.30;;
56299;SDS011;42209;6.376;-10.782;2022-08-21T10:15:00;3.42;;;1.02;;
56299;SDS011;42209;6.376;-10.782;2022-08-21T10:18:03;1.23;;;1.00;;
56299;SDS011;42209;6.376;-10.782;2022-08-21T10:34:33;1.50;;;1.25;;
56299;SDS011;42209;6.376;-10.782;2022-08-21T10:37:32;1.52;;;0.98;;
56299;SDS011;42209;6.376;-10.782;2022-08-21T10:43:29;1.42;;;1.15;;
56299;SDS011;42209;6.376;-10.782;2022-08-21T10:49:04;2.63;;;1.30;;
56299;SDS011;42209;6.376;-10.782;2022-08-21T10:51:42;1.83;;;1.15;;
56299;SDS011;42209;6.376;-10.782;2022-08-21T10:56:41;1.73;;;1.20;;
56299;SDS011;42209;6.376;-10.782;2022-08-21T10:59:33;1.63;;;1.17;;
56299;SDS011;42209;6.376;-10.782;2022-08-21T11:02:22;2.03;;;0.90;;
56299;SDS011;42209;6.376;-10.782;2022-08-21T11:07:48;1.77;;;1.30;;
56299;SDS011;42209;6.376;-10.782;2022-08-21T11:10:24;1.75;;;1.25;;
56299;SDS011;42209;6.376;-10.782;2022-08-21T11:13:01;1.98;;;1.25;;
56299;SDS011;42209;6.376;-10.782;2022-08-21T11:15:56;2.40;;;1.33;;
56299;SDS011;42209;6.376;-10.782;2022-08-21T11:18:37;2.08;;;1.40;;
56299;SDS011;42209;6.376;-10.782;2022-08-21T11:24:50;1.70;;;1.25;;
56299;SDS011;42209;6.376;-10.782;2022-08-21T11:30:05;1.38;;;1.02;;
56299;SDS011;42209;6.376;-10.782;2022-08-21T11:38:02;1.50;;;1.08;;
56299;SDS011;42209;6.376;-10.782;2022-08-21T11:45:56;2.40;;;1.63;;
56299;SDS011;42209;6.376;-10.782;2022-08-21T11:49:06;2.80;;;1.85;;
56299;SDS011;42209;6.376;-10.782;2022-08-21T11:52:36;1.73;;;0.93;;
56299;SDS011;42209;6.376;-10.782;2022-08-21T11:54:52;1.80;;;0.98;;
56299;SDS011;42209;6.376;-10.782;2022-08-21T12:00:00;2.70;;;1.10;;
56299;SDS011;42209;6.376;-10.782;2022-08-21T12:02:56;1.98;;;1.13;;
56299;SDS011;42209;6.376;-10.782;2022-08-21T12:05:41;2.15;;;1.50;;
56299;SDS011;42209;6.376;-10.782;2022-08-21T12:08:14;2.33;;;1.70;;
56299;SDS011;42209;6.376;-10.782;2022-08-21T12:11:22;2.45;;;1.58;;
56299;SDS011;42209;6.376;-10.782;2022-08-21T12:16:32;1.35;;;1.02;;
56299;SDS011;42209;6.376;-10.782;2022-08-21T12:19:07;2.40;;;1.25;;
56299;SDS011;42209;6.376;-10.782;2022-08-21T12:21:51;2.50;;;1.30;;
56299;SDS011;42209;6.376;-10.782;2022-08-21T12:27:01;1.80;;;1.05;;
56299;SDS011;42209;6.376;-10.782;2022-08-21T12:30:01;2.65;;;1.98;;
56299;SDS011;42209;6.376;-10.782;2022-08-21T12:33:20;1.30;;;0.95;;
56299;SDS011;42209;6.376;-10.782;2022-08-21T12:40:57;1.67;;;1.42;;
56299;SDS011;42209;6.376;-10.782;2022-08-21T12:43:50;2.13;;;1.30;;
56299;SDS011;42209;6.376;-10.782;2022-08-21T12:46:36;2.13;;;1.55;;
56299;SDS011;42209;6.376;-10.782;2022-08-21T12:49:14;2.47;;;1.30;;
56299;SDS011;42209;6.376;-10.782;2022-08-21T12:51:56;2.47;;;1.33;;
56299;SDS011;42209;6.376;-10.782;2022-08-21T12:54:37;2.05;;;1.65;;
56299;SDS011;42209;6.376;-10.782;2022-08-21T12:57:07;2.22;;;1.30;;
56299;SDS011;42209;6.376;-10.782;2022-08-21T12:59:44;2.25;;;1.58;;
56299;SDS011;42209;6.376;-10.782;2022-08-21T13:02:15;2.00;;;1.40;;
56299;SDS011;42209;6.376;-10.782;2022-08-21T13:04:46;2.13;;;1.27;;
56299;SDS011;42209;6.376;-10.782;2022-08-21T13:07:27;2.67;;;1.45;;
56299;SDS011;42209;6.376;-10.782;2022-08-21T13:12:40;2.22;;;1.60;;
56299;SDS011;42209;6.376;-10.782;2022-08-21T13:15:09;2.05;;;1.52;;
56299;SDS011;42209;6.376;-10.782;2022-08-21T13:17:42;2.58;;;1.70;;
56299;SDS011;42209;6.376;-10.782;2022-08-21T13:20:21;2.58;;;2.05;;
56299;SDS011;42209;6.376;-10.782;2022-08-21T13:22:51;3.90;;;1.45;;
56299;SDS011;42209;6.376;-10.782;2022-08-21T13:25:20;3.53;;;1.52;;
56299;SDS011;42209;6.376;-10.782;2022-08-21T13:28:03;2.35;;;1.35;;
56299;SDS011;42209;6.376;-10.782;2022-08-21T13:30:54;1.98;;;1.77;;
56299;SDS011;42209;6.376;-10.782;2022-08-21T13:33:23;2.05;;;1.30;;
56299;SDS011;42209;6.376;-10.782;2022-08-21T13:36:11;2.45;;;1.77;;
56299;SDS011;42209;6.376;-10.782;2022-08-21T13:38:44;1.67;;;1.45;;
56299;SDS011;42209;6.376;-10.782;2022-08-21T13:43:45;3.70;;;1.85;;
56299;SDS011;42209;6.376;-10.782;2022-08-21T13:46:16;2.42;;;1.75;;
56299;SDS011;42209;6.376;-10.782;2022-08-21T13:48:48;4.53;;;1.85;;
56299;SDS011;42209;6.376;-10.782;2022-08-21T13:51:17;2.10;;;1.42;;
56299;SDS011;42209;6.376;-10.782;2022-08-21T13:53:46;1.83;;;1.30;;
56299;SDS011;42209;6.376;-10.782;2022-08-21T13:56:24;2.63;;;2.10;;
56299;SDS011;42209;6.376;-10.782;2022-08-21T13:58:54;2.20;;;2.00;;
56299;SDS011;42209;6.376;-10.782;2022-08-21T14:01:27;3.05;;;1.73;;
56299;SDS011;42209;6.376;-10.782;2022-08-21T14:04:23;2.35;;;1.15;;
56299;SDS011;42209;6.376;-10.782;2022-08-21T14:06:50;1.98;;;1.67;;
56299;SDS011;42209;6.376;-10.782;2022-08-21T14:10:03;3.30;;;1.45;;
56299;SDS011;42209;6.376;-10.782;2022-08-21T14:12:33;2.28;;;1.42;;
56299;SDS011;42209;6.376;-10.782;2022-08-21T14:15:08;2.47;;;1.75;;
56299;SDS011;42209;6.376;-10.782;2022-08-21T14:17:40;3.25;;;1.38;;
56299;SDS011;42209;6.376;-10.782;2022-08-21T14:20:25;2.55;;;1.80;;
56299;SDS011;42209;6.376;-10.782;2022-08-21T14:23:01;2.55;;;2.28;;
56299;SDS011;42209;6.376;-10.782;2022-08-21T14:33:59;2.45;;;2.13;;
56299;SDS011;42209;6.376;-10.782;2022-08-21T14:36:27;1.95;;;1.80;;
56299;SDS011;42209;6.376;-10.782;2022-08-21T14:38:56;2.05;;;1.85;;
56299;SDS011;42209;6.376;-10.782;2022-08-21T14:41:25;2.75;;;2.33;;
56299;SDS011;42209;6.376;-10.782;2022-08-21T14:43:55;2.92;;;1.95;;
56299;SDS011;42209;6.376;-10.782;2022-08-21T14:46:35;3.78;;;1.70;;
56299;SDS011;42209;6.376;-10.782;2022-08-21T14:49:21;2.42;;;1.73;;
56299;SDS011;42209;6.376;-10.782;2022-08-21T14:51:51;2.78;;;1.70;;
56299;SDS011;42209;6.376;-10.782;2022-08-21T14:54:20;1.65;;;1.42;;
56299;SDS011;42209;6.376;-10.782;2022-08-21T14:57:01;2.25;;;1.60;;
56299;SDS011;42209;6.376;-10.782;2022-08-21T14:59:34;2.28;;;1.63;;
56299;SDS011;42209;6.376;-10.782;2022-08-21T15:02:04;3.95;;;1.33;;
56299;SDS011;42209;6.376;-10.782;2022-08-21T15:04:33;2.60;;;1.95;;
56299;SDS011;42209;6.376;-10.782;2022-08-21T15:07:03;2.33;;;2.10;;
56299;SDS011;42209;6.376;-10.782;2022-08-21T15:09:32;3.20;;;2.40;;
56299;SDS011;42209;6.376;-10.782;2022-08-21T15:12:01;2.00;;;1.77;;
56299;SDS011;42209;6.376;-10.782;2022-08-21T15:14:31;2.15;;;1.95;;
56299;SDS011;42209;6.376;-10.782;2022-08-21T15:17:02;2.30;;;1.98;;
56299;SDS011;42209;6.376;-10.782;2022-08-21T15:19:33;2.47;;;1.92;;
56299;SDS011;42209;6.376;-10.782;2022-08-21T15:22:03;2.08;;;1.88;;
56299;SDS011;42209;6.376;-10.782;2022-08-21T15:27:09;1.98;;;1.67;;
56299;SDS011;42209;6.376;-10.782;2022-08-21T15:29:42;1.55;;;1.30;;
56299;SDS011;42209;6.376;-10.782;2022-08-21T15:32:22;2.17;;;1.40;;
56299;SDS011;42209;6.376;-10.782;2022-08-21T15:34:55;2.60;;;1.77;;
56299;SDS011;42209;6.376;-10.782;2022-08-21T15:37:24;3.05;;;1.88;;
56299;SDS011;42209;6.376;-10.782;2022-08-21T15:39:52;3.78;;;1.95;;
56299;SDS011;42209;6.376;-10.782;2022-08-21T15:42:21;2.42;;;1.55;;
56299;SDS011;42209;6.376;-10.782;2022-08-21T15:44:52;2.80;;;2.17;;
56299;SDS011;42209;6.376;-10.782;2022-08-21T15:47:29;2.45;;;1.75;;
56299;SDS011;42209;6.376;-10.782;2022-08-21T15:50:00;2.28;;;1.67;;
56299;SDS011;42209;6.376;-10.782;2022-08-21T15:52:29;1.85;;;1.65;;
56299;SDS011;42209;6.376;-10.782;2022-08-21T15:54:57;2.67;;;1.80;;
56299;SDS011;42209;6.376;-10.782;2022-08-21T15:57:26;2.45;;;1.88;;
56299;SDS011;42209;6.376;-10.782;2022-08-21T15:59:58;1.95;;;1.75;;
56299;SDS011;42209;6.376;-10.782;2022-08-21T16:02:37;2.20;;;1.77;;
56299;SDS011;42209;6.376;-10.782;2022-08-21T16:05:12;2.15;;;1.52;;
56299;SDS011;42209;6.376;-10.782;2022-08-21T16:07:42;1.88;;;1.77;;
56299;SDS011;42209;6.376;-10.782;2022-08-21T16:10:12;3.25;;;2.13;;
56299;SDS011;42209;6.376;-10.782;2022-08-21T16:12:44;3.03;;;1.88;;
56299;SDS011;42209;6.376;-10.782;2022-08-21T16:15:21;1.70;;;1.42;;
56299;SDS011;42209;6.376;-10.782;2022-08-21T16:17:49;2.10;;;1.48;;
56299;SDS011;42209;6.376;-10.782;2022-08-21T16:20:21;1.73;;;1.50;;
56299;SDS011;42209;6.376;-10.782;2022-08-21T16:22:53;2.13;;;1.58;;
56299;SDS011;42209;6.376;-10.782;2022-08-21T16:25:23;3.58;;;2.30;;
56299;SDS011;42209;6.376;-10.782;2022-08-21T16:27:57;2.05;;;1.58;;
56299;SDS011;42209;6.376;-10.782;2022-08-21T16:30:27;2.65;;;1.55;;
56299;SDS011;42209;6.376;-10.782;2022-08-21T16:32:58;2.30;;;1.88;;
56299;SDS011;42209;6.376;-10.782;2022-08-21T16:35:27;2.95;;;1.88;;
56299;SDS011;42209;6.376;-10.782;2022-08-21T16:37:56;2.67;;;2.15;;
56299;SDS011;42209;6.376;-10.782;2022-08-21T16:42:53;2.17;;;1.95;;
56299;SDS011;42209;6.376;-10.782;2022-08-21T16:47:49;1.67;;;1.58;;
56299;SDS011;42209;6.376;-10.782;2022-08-21T16:50:21;3.47;;;2.60;;
56299;SDS011;42209;6.376;-10.782;2022-08-21T16:52:50;2.85;;;2.20;;
56299;SDS011;42209;6.376;-10.782;2022-08-21T16:57:47;2.97;;;2.17;;
56299;SDS011;42209;6.376;-10.782;2022-08-21T17:00:15;2.60;;;1.88;;
56299;SDS011;42209;6.376;-10.782;2022-08-21T17:02:45;2.10;;;1.65;;
56299;SDS011;42209;6.376;-10.782;2022-08-21T17:05:16;2.20;;;1.90;;
56299;SDS011;42209;6.376;-10.782;2022-08-21T17:07:44;4.03;;;1.65;;
56299;SDS011;42209;6.376;-10.782;2022-08-21T17:10:14;1.45;;;1.17;;
56299;SDS011;42209;6.376;-10.782;2022-08-21T17:12:43;2.50;;;2.03;;
56299;SDS011;42209;6.376;-10.782;2022-08-21T17:15:22;2.00;;;1.75;;
56299;SDS011;42209;6.376;-10.782;2022-08-21T17:17:54;2.10;;;1.63;;
56299;SDS011;42209;6.376;-10.782;2022-08-21T17:20:22;4.63;;;1.98;;
56299;SDS011;42209;6.376;-10.782;2022-08-21T17:25:19;3.53;;;1.48;;
56299;SDS011;42209;6.376;-10.782;2022-08-21T17:27:47;4.07;;;1.75;;
56299;SDS011;42209;6.376;-10.782;2022-08-21T17:30:17;1.85;;;1.65;;